createdAt,value
2023-02-11T00:00:49.685Z,1.9
2023-02-11T00:01:50.374Z,1.7
2023-02-11T00:02:51.299Z,1.6
2023-02-11T00:03:52.273Z,1.6
2023-02-11T00:04:53.309Z,1.7
2023-02-11T00:05:54.349Z,1.8
2023-02-11T00:06:55.309Z,1.8
2023-02-11T00:07:56.290Z,1.6
2023-02-11T00:08:57.373Z,1.7
2023-02-11T00:09:58.353Z,1.7
2023-02-11T00:10:59.293Z,1.6
2023-02-11T00:12:00.270Z,1.5
2023-02-11T00:13:01.290Z,1.6
2023-02-11T00:14:02.330Z,1.6
2023-02-11T00:15:03.310Z,1.6
2023-02-11T00:16:04.410Z,1.7
2023-02-11T00:17:05.308Z,1.7
2023-02-11T00:18:06.335Z,1.6
2023-02-11T00:19:07.310Z,1.7
2023-02-11T00:20:08.417Z,1.9
2023-02-11T00:21:09.371Z,1.9
2023-02-11T00:22:10.377Z,1.9
2023-02-11T00:23:11.327Z,2
2023-02-11T00:24:12.340Z,2.1
2023-02-11T00:25:13.391Z,2.2
2023-02-11T00:26:14.352Z,2.2
2023-02-11T00:27:15.339Z,2.2
2023-02-11T00:28:16.400Z,2.2
2023-02-11T00:29:17.356Z,2.2
2023-02-11T00:30:18.361Z,2.2
2023-02-11T00:31:19.390Z,2.2
2023-02-11T00:32:20.333Z,2.2
2023-02-11T00:33:21.304Z,2.3
2023-02-11T00:34:22.267Z,2.3
2023-02-11T00:35:23.289Z,2.2
2023-02-11T00:36:24.278Z,2.1
2023-02-11T00:37:25.286Z,2.1
2023-02-11T00:38:26.326Z,2.1
2023-02-11T00:39:27.346Z,2.1
2023-02-11T00:40:28.332Z,2.1
2023-02-11T00:41:29.330Z,2.1
2023-02-11T00:42:30.285Z,2
2023-02-11T00:43:31.327Z,2
2023-02-11T00:44:32.345Z,1.9
2023-02-11T00:45:33.326Z,2
2023-02-11T00:46:34.377Z,2.1
2023-02-11T00:47:35.340Z,2.1
2023-02-11T00:48:36.336Z,2.2
2023-02-11T00:49:37.322Z,2.3
2023-02-11T00:50:38.271Z,2.3
2023-02-11T00:51:39.346Z,2.2
2023-02-11T00:52:40.352Z,2.2
2023-02-11T00:53:41.328Z,2.1
2023-02-11T00:54:42.329Z,2.1
2023-02-11T00:55:43.334Z,2.1
2023-02-11T00:56:44.322Z,2.1
2023-02-11T00:57:45.325Z,2.1
2023-02-11T00:58:46.354Z,2.1
2023-02-11T00:59:47.328Z,2.2
2023-02-11T01:00:48.345Z,2.1
2023-02-11T01:01:49.394Z,2.2
2023-02-11T01:02:50.351Z,2.1
2023-02-11T01:03:51.346Z,2.1
2023-02-11T01:04:52.415Z,2.1
2023-02-11T01:05:53.428Z,1.9
2023-02-11T01:06:54.326Z,1.8
2023-02-11T01:07:55.352Z,1.8
2023-02-11T01:08:56.368Z,1.8
2023-02-11T01:09:57.330Z,1.8
2023-02-11T01:10:58.359Z,1.8
2023-02-11T01:11:59.369Z,1.7
2023-02-11T01:13:00.389Z,1.7
2023-02-11T01:14:01.331Z,1.7
2023-02-11T01:15:02.348Z,1.7
2023-02-11T01:16:03.358Z,1.8
2023-02-11T01:17:04.369Z,1.8
2023-02-11T01:18:05.351Z,1.8
2023-02-11T01:19:06.411Z,1.8
2023-02-11T01:20:07.349Z,1.8
2023-02-11T01:21:08.409Z,1.8
2023-02-11T01:22:09.372Z,1.8
2023-02-11T01:23:10.357Z,1.9
2023-02-11T01:24:11.389Z,1.9
2023-02-11T01:25:12.370Z,2
2023-02-11T01:26:13.307Z,2.1
2023-02-11T01:27:14.371Z,2
2023-02-11T01:28:15.418Z,2
2023-02-11T01:29:16.356Z,2
2023-02-11T01:30:17.339Z,1.9
2023-02-11T01:31:18.452Z,1.8
2023-02-11T01:32:19.382Z,1.8
2023-02-11T01:33:20.435Z,1.8
2023-02-11T01:34:21.361Z,1.7
2023-02-11T01:35:22.342Z,1.7
2023-02-11T01:36:23.352Z,1.7
2023-02-11T01:37:24.371Z,1.7
2023-02-11T01:38:25.382Z,1.6
2023-02-11T01:39:26.391Z,1.6
2023-02-11T01:40:27.411Z,1.6
2023-02-11T01:41:28.372Z,1.6
2023-02-11T01:42:29.396Z,1.7
2023-02-11T01:43:30.371Z,1.7
2023-02-11T01:44:31.347Z,1.7
2023-02-11T01:45:32.333Z,1.7
2023-02-11T01:46:33.435Z,1.7
2023-02-11T01:47:34.337Z,1.8
2023-02-11T01:48:35.442Z,1.9
2023-02-11T01:49:36.412Z,1.9
2023-02-11T01:50:37.335Z,1.9
2023-02-11T01:51:38.355Z,1.9
2023-02-11T01:52:39.357Z,2
2023-02-11T01:53:40.360Z,1.9
2023-02-11T01:54:41.399Z,1.8
2023-02-11T01:55:42.390Z,1.7
2023-02-11T01:56:43.373Z,1.7
2023-02-11T01:57:44.354Z,1.7
2023-02-11T01:58:45.390Z,1.8
2023-02-11T01:59:46.396Z,1.8
2023-02-11T02:00:47.350Z,1.8
2023-02-11T02:01:48.383Z,1.8
2023-02-11T02:02:49.352Z,1.8
2023-02-11T02:05:54.577Z,1.8
2023-02-11T02:06:55.339Z,1.8
2023-02-11T02:07:56.369Z,1.8
2023-02-11T02:08:57.343Z,1.9
2023-02-11T02:09:58.361Z,1.8
2023-02-11T02:10:59.329Z,1.7
2023-02-11T02:12:00.401Z,1.8
2023-02-11T02:13:01.391Z,1.8
2023-02-11T02:14:02.377Z,1.7
2023-02-11T02:15:03.419Z,1.8
2023-02-11T02:16:04.496Z,1.8
2023-02-11T02:17:05.380Z,1.9
2023-02-11T02:18:06.396Z,2
2023-02-11T02:19:07.420Z,2
2023-02-11T02:20:08.359Z,2
2023-02-11T02:21:09.382Z,2
2023-02-11T02:22:10.407Z,2
2023-02-11T02:23:11.355Z,1.9
2023-02-11T02:24:14.140Z,1.9
2023-02-11T02:25:13.399Z,1.9
2023-02-11T02:26:14.348Z,1.8
2023-02-11T02:27:15.403Z,1.8
2023-02-11T02:28:16.417Z,1.7
2023-02-11T02:29:17.362Z,1.7
2023-02-11T02:30:18.372Z,1.6
2023-02-11T02:31:19.371Z,1.7
2023-02-11T02:32:20.414Z,1.7
2023-02-11T02:33:22.982Z,1.7
2023-02-11T02:34:22.357Z,1.7
2023-02-11T02:35:23.351Z,1.6
2023-02-11T02:36:24.376Z,1.6
2023-02-11T02:37:25.352Z,1.7
2023-02-11T02:38:26.398Z,1.7
2023-02-11T02:39:27.373Z,1.8
2023-02-11T02:40:28.384Z,1.8
2023-02-11T02:41:29.340Z,1.8
2023-02-11T02:42:30.412Z,1.7
2023-02-11T02:43:31.372Z,1.7
2023-02-11T02:44:32.380Z,1.7
2023-02-11T02:45:33.392Z,1.8
2023-02-11T02:46:34.396Z,1.8
2023-02-11T02:47:35.397Z,1.8
2023-02-11T02:48:36.394Z,1.9
2023-02-11T02:49:37.404Z,2
2023-02-11T02:50:38.402Z,1.9
2023-02-11T02:51:39.429Z,2
2023-02-11T02:52:40.359Z,2
2023-02-11T02:53:41.383Z,2.1
2023-02-11T02:54:42.417Z,2.1
2023-02-11T02:55:43.394Z,2
2023-02-11T02:56:44.440Z,2
2023-02-11T02:57:45.444Z,2
2023-02-11T02:58:47.265Z,1.9
2023-02-11T02:59:47.364Z,1.8
2023-02-11T03:00:48.437Z,1.8
2023-02-11T03:01:49.378Z,1.8
2023-02-11T03:02:50.419Z,1.7
2023-02-11T03:03:51.564Z,1.7
2023-02-11T03:04:52.382Z,1.6
2023-02-11T03:05:53.668Z,1.5
2023-02-11T03:06:54.400Z,1.5
2023-02-11T03:07:55.435Z,1.5
2023-02-11T03:08:56.416Z,1.5
2023-02-11T03:09:57.406Z,1.5
2023-02-11T03:10:58.375Z,1.5
2023-02-11T03:11:59.436Z,1.5
2023-02-11T03:13:00.499Z,1.4
2023-02-11T03:14:01.400Z,1.4
2023-02-11T03:15:02.422Z,1.4
2023-02-11T03:16:03.447Z,1.5
2023-02-11T03:17:04.435Z,1.6
2023-02-11T03:18:05.418Z,1.7
2023-02-11T03:19:06.377Z,1.8
2023-02-11T03:20:07.396Z,1.8
2023-02-11T03:21:08.416Z,1.9
2023-02-11T03:22:09.440Z,1.9
2023-02-11T03:23:10.396Z,1.8
2023-02-11T03:24:11.396Z,1.8
2023-02-11T03:25:12.385Z,1.8
2023-02-11T03:26:13.418Z,1.8
2023-02-11T03:27:14.406Z,1.9
2023-02-11T03:28:16.502Z,1.9
2023-02-11T03:29:16.398Z,1.9
2023-02-11T03:30:17.425Z,1.9
2023-02-11T03:31:18.506Z,1.8
2023-02-11T03:32:19.500Z,1.7
2023-02-11T03:33:20.396Z,1.6
2023-02-11T03:34:21.395Z,1.7
2023-02-11T03:35:22.416Z,1.7
2023-02-11T03:36:23.461Z,1.7
2023-02-11T03:37:24.416Z,1.8
2023-02-11T03:38:25.376Z,1.7
2023-02-11T03:39:26.398Z,1.8
2023-02-11T03:40:27.456Z,1.8
2023-02-11T03:41:28.376Z,1.8
2023-02-11T03:42:29.417Z,1.8
2023-02-11T03:43:30.376Z,1.8
2023-02-11T03:44:31.395Z,2
2023-02-11T03:45:32.470Z,2.1
2023-02-11T03:46:33.367Z,2.2
2023-02-11T03:47:34.405Z,2.1
2023-02-11T03:48:35.438Z,2
2023-02-11T03:49:36.399Z,1.9
2023-02-11T03:50:37.437Z,1.9
2023-02-11T03:51:38.416Z,2
2023-02-11T03:52:39.437Z,2.1
2023-02-11T03:53:40.418Z,2.3
2023-02-11T03:54:41.396Z,2.3
2023-02-11T03:55:42.437Z,2.3
2023-02-11T03:56:43.400Z,2.3
2023-02-11T03:57:44.396Z,2.4
2023-02-11T03:58:45.457Z,2.4
2023-02-11T03:59:46.365Z,2.5
2023-02-11T04:00:47.495Z,2.5
2023-02-11T04:01:48.426Z,2.6
2023-02-11T04:02:49.615Z,2.7
2023-02-11T04:03:50.439Z,2.7
2023-02-11T04:04:51.417Z,2.7
2023-02-11T04:05:52.583Z,2.7
2023-02-11T04:06:53.436Z,2.7
2023-02-11T04:07:54.434Z,2.7
2023-02-11T04:08:55.444Z,2.5
2023-02-11T04:09:56.439Z,2.6
2023-02-11T04:10:57.425Z,2.6
2023-02-11T04:11:58.438Z,2.6
2023-02-11T04:12:59.398Z,2.6
2023-02-11T04:14:00.519Z,2.5
2023-02-11T04:15:01.421Z,2.4
2023-02-11T04:16:02.417Z,2.2
2023-02-11T04:17:03.416Z,2.1
2023-02-11T04:18:04.398Z,2.1
2023-02-11T04:19:05.476Z,2.1
2023-02-11T04:20:07.420Z,2.1
2023-02-11T04:21:08.418Z,2.2
2023-02-11T04:22:09.459Z,2.3
2023-02-11T04:23:10.486Z,2.3
2023-02-11T04:24:11.484Z,2.3
2023-02-11T04:25:12.437Z,2.3
2023-02-11T04:26:13.425Z,2.3
2023-02-11T04:27:14.438Z,2.4
2023-02-11T04:28:15.462Z,2.3
2023-02-11T04:29:16.420Z,2.3
2023-02-11T04:30:17.397Z,2.3
2023-02-11T04:31:18.497Z,2.4
2023-02-11T04:32:19.422Z,2.4
2023-02-11T04:33:20.439Z,2.5
2023-02-11T04:34:21.466Z,2.5
2023-02-11T04:35:22.437Z,2.6
2023-02-11T04:36:23.420Z,2.6
2023-02-11T04:37:24.478Z,2.6
2023-02-11T04:38:25.464Z,2.5
2023-02-11T04:39:26.425Z,2.5
2023-02-11T04:40:27.398Z,2.4
2023-02-11T04:41:28.420Z,2.3
2023-02-11T04:42:29.404Z,2.2
2023-02-11T04:43:30.431Z,2.2
2023-02-11T04:44:31.443Z,2.2
2023-02-11T04:45:32.442Z,2.2
2023-02-11T04:46:33.389Z,2.2
2023-02-11T04:47:34.418Z,2.1
2023-02-11T04:48:35.432Z,2.1
2023-02-11T04:49:36.474Z,2.1
2023-02-11T04:50:37.438Z,2
2023-02-11T04:51:38.398Z,2.1
2023-02-11T04:52:39.418Z,2.1
2023-02-11T04:53:40.464Z,2.1
2023-02-11T04:54:41.478Z,2
2023-02-11T04:55:42.441Z,1.9
2023-02-11T04:56:43.464Z,1.8
2023-02-11T04:57:44.428Z,1.8
2023-02-11T04:58:45.440Z,1.8
2023-02-11T04:59:46.498Z,2
2023-02-11T05:00:47.461Z,2
2023-02-11T05:01:48.403Z,2
2023-02-11T05:02:49.498Z,2
2023-02-11T05:03:50.594Z,1.8
2023-02-11T05:04:51.429Z,1.8
2023-02-11T05:05:52.811Z,1.9
2023-02-11T05:06:53.458Z,1.9
2023-02-11T05:07:54.416Z,1.8
2023-02-11T05:08:55.534Z,1.9
2023-02-11T05:09:56.497Z,2
2023-02-11T05:10:57.498Z,2
2023-02-11T05:11:58.459Z,1.9
2023-02-11T05:12:59.423Z,1.9
2023-02-11T05:14:00.520Z,1.8
2023-02-11T05:15:01.512Z,1.7
2023-02-11T05:16:02.444Z,1.6
2023-02-11T05:17:03.538Z,1.7
2023-02-11T05:18:04.445Z,1.6
2023-02-11T05:19:05.506Z,1.6
2023-02-11T05:20:06.539Z,1.6
2023-02-11T05:21:07.485Z,1.7
2023-02-11T05:22:08.450Z,1.7
2023-02-11T05:23:09.457Z,1.7
2023-02-11T05:24:10.490Z,1.7
2023-02-11T05:25:11.478Z,1.8
2023-02-11T05:26:12.485Z,1.7
2023-02-11T05:27:13.439Z,1.7
2023-02-11T05:28:14.548Z,1.6
2023-02-11T05:29:15.440Z,1.7
2023-02-11T05:30:16.461Z,1.7
2023-02-11T05:31:17.529Z,1.6
2023-02-11T05:32:18.476Z,1.6
2023-02-11T05:33:19.439Z,1.7
2023-02-11T05:34:20.440Z,1.8
2023-02-11T05:35:21.476Z,1.8
2023-02-11T05:36:22.452Z,1.8
2023-02-11T05:37:23.627Z,1.8
2023-02-11T05:38:24.604Z,1.8
2023-02-11T05:39:25.490Z,1.9
2023-02-11T05:40:26.457Z,2
2023-02-11T05:41:27.437Z,2.1
2023-02-11T05:42:28.458Z,2.2
2023-02-11T05:43:29.452Z,2.2
2023-02-11T05:44:30.443Z,2.3
2023-02-11T05:45:31.500Z,2.3
2023-02-11T05:46:32.579Z,2.2
2023-02-11T05:47:33.424Z,2.2
2023-02-11T05:48:34.476Z,2.2
2023-02-11T05:49:35.438Z,2.2
2023-02-11T05:50:36.500Z,2.3
2023-02-11T05:51:37.485Z,2.2
2023-02-11T05:52:38.443Z,2.1
2023-02-11T05:53:39.497Z,2.2
2023-02-11T05:54:40.501Z,2.2
2023-02-11T05:55:41.495Z,2.2
2023-02-11T05:56:44.705Z,2.3
2023-02-11T05:57:43.523Z,2.3
2023-02-11T05:58:44.432Z,2.2
2023-02-11T05:59:45.517Z,2.2
2023-02-11T06:00:46.468Z,2.3
2023-02-11T06:01:47.517Z,2.2
2023-02-11T06:02:48.621Z,2.3
2023-02-11T06:03:49.488Z,2.3
2023-02-11T06:04:50.538Z,2.3
2023-02-11T06:05:51.716Z,2.4
2023-02-11T06:06:52.478Z,2.3
2023-02-11T06:07:53.459Z,2.2
2023-02-11T06:08:54.493Z,2.2
2023-02-11T06:09:55.523Z,2.3
2023-02-11T06:10:56.481Z,2.3
2023-02-11T06:11:57.457Z,2.3
2023-02-11T06:12:58.501Z,2.4
2023-02-11T06:13:59.476Z,2.5
2023-02-11T06:15:00.496Z,2.5
2023-02-11T06:16:01.541Z,2.4
2023-02-11T06:17:02.482Z,2.4
2023-02-11T06:18:03.483Z,2.5
2023-02-11T06:19:04.445Z,2.4
2023-02-11T06:20:05.498Z,2.4
2023-02-11T06:21:06.557Z,2.5
2023-02-11T06:22:07.579Z,2.5
2023-02-11T06:23:08.460Z,2.6
2023-02-11T06:24:09.455Z,2.6
2023-02-11T06:25:10.508Z,2.7
2023-02-11T06:26:11.468Z,2.8
2023-02-11T06:27:12.520Z,2.9
2023-02-11T06:28:13.490Z,2.9
2023-02-11T06:29:14.456Z,2.9
2023-02-11T06:30:15.497Z,3
2023-02-11T06:31:16.575Z,3.1
2023-02-11T06:32:37.216Z,3.1
2023-02-11T06:33:18.501Z,3.2
2023-02-11T06:34:19.497Z,3.1
2023-02-11T06:35:20.479Z,3.2
2023-02-11T06:36:21.480Z,3
2023-02-11T06:37:22.500Z,3
2023-02-11T06:38:23.539Z,3.1
2023-02-11T06:39:24.685Z,3.2
2023-02-11T06:40:25.478Z,3.1
2023-02-11T06:41:26.480Z,3.1
2023-02-11T06:42:27.486Z,3
2023-02-11T06:43:28.478Z,3
2023-02-11T06:44:29.458Z,2.9
2023-02-11T06:45:30.539Z,2.9
2023-02-11T06:46:31.565Z,2.9
2023-02-11T06:47:32.477Z,2.9
2023-02-11T06:48:33.550Z,2.9
2023-02-11T06:49:34.484Z,2.8
2023-02-11T06:50:35.472Z,2.8
2023-02-11T06:51:36.481Z,2.8
2023-02-11T06:52:37.502Z,2.9
2023-02-11T06:53:38.537Z,2.9
2023-02-11T06:54:39.538Z,2.9
2023-02-11T06:55:40.526Z,2.9
2023-02-11T06:56:41.480Z,2.8
2023-02-11T06:57:42.549Z,2.9
2023-02-11T06:58:43.520Z,2.9
2023-02-11T06:59:44.461Z,2.9
2023-02-11T07:00:45.518Z,2.9
2023-02-11T07:01:46.602Z,2.9
2023-02-11T07:02:47.533Z,2.9
2023-02-11T07:03:48.526Z,2.9
2023-02-11T07:04:49.487Z,3
2023-02-11T07:05:50.829Z,3
2023-02-11T07:06:51.520Z,3
2023-02-11T07:07:52.498Z,3
2023-02-11T07:08:53.499Z,3
2023-02-11T07:09:54.497Z,3
2023-02-11T07:10:55.505Z,3
2023-02-11T07:11:56.500Z,3.1
2023-02-11T07:12:58.825Z,3.1
2023-02-11T07:13:58.542Z,3.1
2023-02-11T07:14:59.526Z,3
2023-02-11T07:16:00.467Z,2.8
2023-02-11T07:17:01.535Z,2.8
2023-02-11T07:18:02.541Z,2.8
2023-02-11T07:19:03.480Z,2.7
2023-02-11T07:20:04.502Z,2.6
2023-02-11T07:21:05.529Z,2.6
2023-02-11T07:22:06.452Z,2.6
2023-02-11T07:23:07.485Z,2.7
2023-02-11T07:24:10.857Z,2.7
2023-02-11T07:25:09.488Z,2.8
2023-02-11T07:26:10.521Z,2.9
2023-02-11T07:27:11.483Z,2.8
2023-02-11T07:28:12.511Z,2.8
2023-02-11T07:29:13.504Z,2.8
2023-02-11T07:30:14.543Z,2.8
2023-02-11T07:31:15.627Z,2.8
2023-02-11T07:32:16.583Z,2.7
2023-02-11T07:33:17.531Z,2.8
2023-02-11T07:34:18.622Z,2.9
2023-02-11T07:35:19.493Z,2.9
2023-02-11T07:36:20.498Z,2.9
2023-02-11T07:37:21.470Z,2.9
2023-02-11T07:38:22.513Z,2.7
2023-02-11T07:39:23.483Z,2.8
2023-02-11T07:40:24.736Z,2.9
2023-02-11T07:41:25.498Z,2.8
2023-02-11T07:42:26.538Z,2.8
2023-02-11T07:43:27.471Z,2.8
2023-02-11T07:44:28.522Z,2.8
2023-02-11T07:45:29.487Z,2.8
2023-02-11T07:46:30.514Z,2.8
2023-02-11T07:47:31.516Z,2.9
2023-02-11T07:48:32.497Z,2.8
2023-02-11T07:49:33.476Z,2.8
2023-02-11T07:50:34.505Z,2.8
2023-02-11T07:51:35.502Z,2.8
2023-02-11T07:52:36.505Z,2.9
2023-02-11T07:53:37.524Z,2.9
2023-02-11T07:54:38.539Z,2.9
2023-02-11T07:55:39.537Z,3
2023-02-11T07:56:40.642Z,3
2023-02-11T07:57:41.512Z,3
2023-02-11T07:58:42.539Z,3
2023-02-11T07:59:43.479Z,3
2023-02-11T08:00:44.581Z,2.9
2023-02-11T08:01:45.573Z,3
2023-02-11T08:02:46.520Z,3
2023-02-11T08:03:47.478Z,3
2023-02-11T08:04:48.513Z,3
2023-02-11T08:05:49.845Z,3
2023-02-11T08:06:50.577Z,3.2
2023-02-11T08:07:51.467Z,3.3
2023-02-11T08:08:52.511Z,3.4
2023-02-11T08:09:53.497Z,3.6
2023-02-11T08:10:54.541Z,3.7
2023-02-11T08:11:55.546Z,3.7
2023-02-11T08:12:56.521Z,3.5
2023-02-11T08:13:57.564Z,3.5
2023-02-11T08:14:58.537Z,3.6
2023-02-11T08:15:59.509Z,3.7
2023-02-11T08:17:00.517Z,3.6
2023-02-11T08:18:01.548Z,3.6
2023-02-11T08:19:02.545Z,3.7
2023-02-11T08:20:03.533Z,3.7
2023-02-11T08:21:04.483Z,3.8
2023-02-11T08:22:05.528Z,3.8
2023-02-11T08:23:06.496Z,3.8
2023-02-11T08:24:07.526Z,3.7
2023-02-11T08:25:08.480Z,3.7
2023-02-11T08:26:09.756Z,3.3
2023-02-11T08:27:10.507Z,3.3
2023-02-11T08:28:11.532Z,3.3
2023-02-11T08:29:12.569Z,3.3
2023-02-11T08:30:13.519Z,3.4
2023-02-11T08:31:14.735Z,3.3
2023-02-11T08:32:15.524Z,3.3
2023-02-11T08:33:16.523Z,3.4
2023-02-11T08:34:17.533Z,3.4
2023-02-11T08:35:18.572Z,3.6
2023-02-11T08:36:19.518Z,3.7
2023-02-11T08:37:20.498Z,3.8
2023-02-11T08:38:21.506Z,3.6
2023-02-11T08:39:22.568Z,3.6
2023-02-11T08:40:23.521Z,3.6
2023-02-11T08:41:24.822Z,3.7
2023-02-11T08:42:25.595Z,3.8
2023-02-11T08:43:26.564Z,4
2023-02-11T08:44:27.513Z,4.1
2023-02-11T08:45:28.550Z,4.1
2023-02-11T08:46:29.565Z,4.1
2023-02-11T08:47:30.601Z,4.1
2023-02-11T08:48:31.528Z,4.1
2023-02-11T08:49:32.552Z,4
2023-02-11T08:50:33.600Z,4
2023-02-11T08:51:34.532Z,4
2023-02-11T08:52:35.561Z,4.1
2023-02-11T08:53:36.571Z,4
2023-02-11T08:54:37.533Z,4
2023-02-11T08:55:38.514Z,4
2023-02-11T08:56:39.613Z,3.9
2023-02-11T08:57:40.556Z,3.8
2023-02-11T08:58:41.539Z,3.8
2023-02-11T08:59:42.557Z,3.8
2023-02-11T09:00:43.573Z,3.8
2023-02-11T09:01:44.847Z,3.8
2023-02-11T09:02:45.511Z,3.8
2023-02-11T09:03:46.573Z,3.9
2023-02-11T09:04:47.516Z,3.9
2023-02-11T09:05:48.520Z,3.9
2023-02-11T09:06:49.575Z,4
2023-02-11T09:07:50.523Z,4
2023-02-11T09:08:51.587Z,4.1
2023-02-11T09:09:52.509Z,4
2023-02-11T09:10:53.653Z,4
2023-02-11T09:11:54.546Z,4
2023-02-11T09:12:55.688Z,4.1
2023-02-11T09:13:56.599Z,4.1
2023-02-11T09:14:57.577Z,4.2
2023-02-11T09:15:58.556Z,4.2
2023-02-11T09:16:59.524Z,4.2
2023-02-11T09:18:00.588Z,4.1
2023-02-11T09:19:01.620Z,4.1
2023-02-11T09:20:02.546Z,4
2023-02-11T09:21:03.581Z,4
2023-02-11T09:22:04.531Z,4.1
2023-02-11T09:23:05.561Z,4.1
2023-02-11T09:24:06.639Z,4.2
2023-02-11T09:25:07.559Z,4.3
2023-02-11T09:26:09.406Z,4.4
2023-02-11T09:27:09.554Z,4.4
2023-02-11T09:28:10.865Z,4.4
2023-02-11T09:29:11.596Z,4.4
2023-02-11T09:30:12.563Z,4.4
2023-02-11T09:31:13.670Z,4.5
2023-02-11T09:32:14.740Z,4.4
2023-02-11T09:33:15.757Z,4.4
2023-02-11T09:34:17.553Z,4.4
2023-02-11T09:35:18.535Z,4.3
2023-02-11T09:36:19.551Z,4.2
2023-02-11T09:37:20.554Z,4.2
2023-02-11T09:38:21.555Z,4.1
2023-02-11T09:39:22.576Z,4
2023-02-11T09:40:23.514Z,4.1
2023-02-11T09:41:24.834Z,4.2
2023-02-11T09:42:25.577Z,4.3
2023-02-11T09:43:26.532Z,4.4
2023-02-11T09:44:27.553Z,4.4
2023-02-11T09:45:28.541Z,4.3
2023-02-11T09:46:29.772Z,4.3
2023-02-11T09:47:30.634Z,4.2
2023-02-11T09:48:31.555Z,4.2
2023-02-11T09:49:32.635Z,4.2
2023-02-11T09:50:33.573Z,4.3
2023-02-11T09:51:34.575Z,4.4
2023-02-11T09:52:35.525Z,4.4
2023-02-11T09:53:36.675Z,4.5
2023-02-11T09:54:37.608Z,4.4
2023-02-11T09:55:38.547Z,4.4
2023-02-11T09:56:39.556Z,4.4
2023-02-11T09:57:40.575Z,4.4
2023-02-11T09:58:41.589Z,4.4
2023-02-11T09:59:42.599Z,4.6
2023-02-11T10:00:43.577Z,4.6
2023-02-11T10:01:44.614Z,4.6
2023-02-11T10:02:45.602Z,4.6
2023-02-11T10:03:46.544Z,4.6
2023-02-11T10:04:47.594Z,4.5
2023-02-11T10:05:48.558Z,4.4
2023-02-11T10:06:49.539Z,4.3
2023-02-11T10:07:50.578Z,4.4
2023-02-11T10:08:51.598Z,4.5
2023-02-11T10:09:52.646Z,4.6
2023-02-11T10:10:53.916Z,4.6
2023-02-11T10:11:54.597Z,4.7
2023-02-11T10:12:55.675Z,4.7
2023-02-11T10:13:56.632Z,4.6
2023-02-11T10:14:57.566Z,4.6
2023-02-11T10:15:58.704Z,4.5
2023-02-11T10:16:59.598Z,4.6
2023-02-11T10:18:00.629Z,4.6
2023-02-11T10:19:01.659Z,4.7
2023-02-11T10:20:02.604Z,4.8
2023-02-11T10:21:03.589Z,4.8
2023-02-11T10:22:04.567Z,4.9
2023-02-11T10:23:05.639Z,4.9
2023-02-11T10:24:06.546Z,5
2023-02-11T10:25:07.640Z,5
2023-02-11T10:26:08.566Z,5.1
2023-02-11T10:27:09.608Z,5.1
2023-02-11T10:28:10.615Z,5.2
2023-02-11T10:29:11.627Z,5.3
2023-02-11T10:30:12.638Z,5.1
2023-02-11T10:31:13.713Z,5
2023-02-11T10:32:14.671Z,5
2023-02-11T10:33:15.616Z,4.9
2023-02-11T10:34:16.533Z,4.9
2023-02-11T10:35:17.580Z,5
2023-02-11T10:36:18.556Z,5.1
2023-02-11T10:37:19.599Z,5.1
2023-02-11T10:38:20.598Z,5
2023-02-11T10:39:21.589Z,4.9
2023-02-11T10:40:22.581Z,4.9
2023-02-11T10:41:23.558Z,4.9
2023-02-11T10:42:24.998Z,4.9
2023-02-11T10:43:26.624Z,4.9
2023-02-11T10:44:27.593Z,4.9
2023-02-11T10:45:28.585Z,5
2023-02-11T10:46:29.687Z,4.9
2023-02-11T10:47:30.576Z,5
2023-02-11T10:48:31.608Z,5
2023-02-11T10:49:32.619Z,5
2023-02-11T10:50:33.619Z,5.2
2023-02-11T10:51:34.605Z,5.2
2023-02-11T10:52:35.607Z,5.3
2023-02-11T10:53:36.601Z,5.3
2023-02-11T10:54:37.584Z,5.2
2023-02-11T10:55:38.610Z,5.2
2023-02-11T10:56:39.547Z,4.9
2023-02-11T10:57:40.652Z,4.5
2023-02-11T10:58:41.665Z,4.4
2023-02-11T10:59:42.647Z,4.5
2023-02-11T11:00:43.599Z,4.6
2023-02-11T11:01:44.756Z,4.7
2023-02-11T11:02:45.618Z,4.8
2023-02-11T11:03:46.599Z,4.8
2023-02-11T11:04:47.747Z,4.8
2023-02-11T11:05:48.598Z,4.8
2023-02-11T11:06:49.684Z,4.7
2023-02-11T11:07:53.479Z,4.7
2023-02-11T11:08:54.558Z,4.8
2023-02-11T11:09:55.681Z,4.9
2023-02-11T11:10:56.637Z,4.9
2023-02-11T11:11:57.601Z,5
2023-02-11T11:13:00.753Z,5
2023-02-11T11:14:01.723Z,5.1
2023-02-11T11:15:02.673Z,5
2023-02-11T11:16:03.631Z,4.8
2023-02-11T11:17:04.598Z,4.8
2023-02-11T11:18:20.473Z,4.8
2023-02-11T11:19:06.633Z,4.8
2023-02-11T11:20:07.601Z,4.9
2023-02-11T11:21:08.594Z,4.9
2023-02-11T11:22:09.825Z,4.9
2023-02-11T11:23:10.640Z,5
2023-02-11T11:24:11.724Z,4.9
2023-02-11T11:25:12.589Z,5
2023-02-11T11:26:14.238Z,5
2023-02-11T11:27:15.658Z,4.9
2023-02-11T11:28:16.630Z,4.7
2023-02-11T11:29:17.640Z,4.5
2023-02-11T11:30:18.685Z,4.6
2023-02-11T11:31:19.680Z,4.6
2023-02-11T11:32:20.810Z,4.7
2023-02-11T11:33:21.838Z,4.8
2023-02-11T11:34:22.582Z,4.9
2023-02-11T11:35:23.703Z,4.9
2023-02-11T11:36:25.037Z,5.1
2023-02-11T11:37:26.671Z,5.2
2023-02-11T11:38:27.598Z,5.3
2023-02-11T11:39:28.615Z,5.4
2023-02-11T11:40:29.603Z,5.4
2023-02-11T11:41:30.756Z,5.3
2023-02-11T11:42:32.597Z,5.3
2023-02-11T11:43:33.616Z,5.2
2023-02-11T11:44:36.174Z,5.1
2023-02-11T11:45:37.637Z,4.9
2023-02-11T11:46:38.729Z,4.9
2023-02-11T11:47:39.576Z,4.8
2023-02-11T11:48:40.692Z,4.8
2023-02-11T11:49:41.664Z,4.8
2023-02-11T11:50:42.573Z,4.7
2023-02-11T11:51:43.628Z,4.7
2023-02-11T11:52:44.836Z,4.7
2023-02-11T11:53:46.657Z,4.6
2023-02-11T11:54:47.623Z,4.7
2023-02-11T11:55:48.631Z,4.7
2023-02-11T11:56:49.635Z,4.7
2023-02-11T11:57:50.892Z,4.8
2023-02-11T11:58:52.596Z,4.8
2023-02-11T11:59:53.672Z,4.8
2023-02-11T12:00:54.640Z,4.8
2023-02-11T12:01:55.677Z,4.8
2023-02-11T12:02:56.666Z,4.8
2023-02-11T12:03:57.617Z,4.9
2023-02-11T12:04:58.633Z,5
2023-02-11T12:05:59.594Z,5
2023-02-11T12:07:00.624Z,5
2023-02-11T12:08:01.692Z,5
2023-02-11T12:09:02.648Z,4.9
2023-02-11T12:10:03.650Z,5
2023-02-11T12:11:04.629Z,5
2023-02-11T12:12:05.596Z,5.1
2023-02-11T12:13:06.592Z,5.2
2023-02-11T12:14:07.589Z,5
2023-02-11T12:15:08.641Z,5
2023-02-11T12:16:09.702Z,5.1
2023-02-11T12:17:10.614Z,5
2023-02-11T12:18:11.611Z,5
2023-02-11T12:19:12.651Z,5
2023-02-11T12:20:13.687Z,5.1
2023-02-11T12:21:14.631Z,5.1
2023-02-11T12:22:15.668Z,5
2023-02-11T12:23:16.611Z,5
2023-02-11T12:24:17.686Z,5
2023-02-11T12:25:18.632Z,5
2023-02-11T12:26:19.620Z,5
2023-02-11T12:27:20.720Z,5
2023-02-11T12:28:21.684Z,5
2023-02-11T12:29:22.654Z,4.8
2023-02-11T12:30:23.595Z,4.8
2023-02-11T12:31:25.262Z,4.8
2023-02-11T12:32:26.622Z,4.8
2023-02-11T12:33:27.632Z,4.9
2023-02-11T12:34:28.655Z,5
2023-02-11T12:35:29.645Z,5
2023-02-11T12:36:30.639Z,5.1
2023-02-11T12:37:31.881Z,5.1
2023-02-11T12:38:32.659Z,5.1
2023-02-11T12:39:33.631Z,5.1
2023-02-11T12:40:34.658Z,5.1
2023-02-11T12:41:35.853Z,5.1
2023-02-11T12:42:37.619Z,5.1
2023-02-11T12:43:38.638Z,5.2
2023-02-11T12:44:39.653Z,5.1
2023-02-11T12:45:40.709Z,5.1
2023-02-11T12:46:41.659Z,5.1
2023-02-11T12:47:42.660Z,5
2023-02-11T12:48:43.735Z,5
2023-02-11T12:49:44.638Z,5
2023-02-11T12:50:45.977Z,5
2023-02-11T12:51:47.634Z,5
2023-02-11T12:52:48.636Z,5.1
2023-02-11T12:53:49.642Z,5.1
2023-02-11T12:54:50.640Z,5
2023-02-11T12:55:51.662Z,4.9
2023-02-11T12:56:52.760Z,5
2023-02-11T12:57:54.685Z,5
2023-02-11T12:58:55.646Z,5
2023-02-11T12:59:56.721Z,5
2023-02-11T13:00:57.770Z,5
2023-02-11T13:01:58.729Z,5.1
2023-02-11T13:02:59.644Z,5.2
2023-02-11T13:04:00.662Z,5.2
2023-02-11T13:05:01.705Z,5.2
2023-02-11T13:06:02.675Z,5.1
2023-02-11T13:07:03.680Z,5.1
2023-02-11T13:08:04.669Z,5
2023-02-11T13:09:05.667Z,5
2023-02-11T13:10:06.719Z,5.1
2023-02-11T13:11:07.640Z,5
2023-02-11T13:12:08.759Z,5
2023-02-11T13:13:09.635Z,5
2023-02-11T13:14:10.660Z,5.1
2023-02-11T13:15:11.641Z,4.9
2023-02-11T13:16:12.748Z,4.9
2023-02-11T13:17:13.702Z,4.9
2023-02-11T13:18:15.870Z,4.9
2023-02-11T13:19:15.678Z,4.9
2023-02-11T13:20:16.644Z,5
2023-02-11T13:21:17.714Z,5
2023-02-11T13:22:18.745Z,5.1
2023-02-11T13:23:19.676Z,5.1
2023-02-11T13:24:20.637Z,5.2
2023-02-11T13:25:21.661Z,5.2
2023-02-11T13:26:22.654Z,5.1
2023-02-11T13:27:23.711Z,5.1
2023-02-11T13:28:25.229Z,5
2023-02-11T13:29:26.661Z,5.1
2023-02-11T13:30:27.700Z,5.1
2023-02-11T13:31:31.293Z,5
2023-02-11T13:32:32.726Z,5.1
2023-02-11T13:33:33.670Z,5.1
2023-02-11T13:34:34.625Z,5.1
2023-02-11T13:35:35.647Z,5
2023-02-11T13:36:36.645Z,5
2023-02-11T13:37:37.689Z,5
2023-02-11T13:38:38.646Z,5
2023-02-11T13:39:39.642Z,5.1
2023-02-11T13:40:40.663Z,5.1
2023-02-11T13:41:41.629Z,5.1
2023-02-11T13:42:42.746Z,5.1
2023-02-11T13:43:43.708Z,5.1
2023-02-11T13:44:44.641Z,5.1
2023-02-11T13:45:45.654Z,5.1
2023-02-11T13:46:46.680Z,5.1
2023-02-11T13:47:47.712Z,5.1
2023-02-11T13:48:48.740Z,5.2
2023-02-11T13:49:49.656Z,5.2
2023-02-11T13:50:51.033Z,5.2
2023-02-11T13:51:51.675Z,5.3
2023-02-11T13:52:52.677Z,5.3
2023-02-11T13:53:53.661Z,5.2
2023-02-11T13:54:54.676Z,5.3
2023-02-11T13:55:55.661Z,5.3
2023-02-11T13:56:56.637Z,5.3
2023-02-11T13:57:57.701Z,5.3
2023-02-11T13:59:01.547Z,5.3
2023-02-11T13:59:59.654Z,5.3
2023-02-11T14:01:00.685Z,5.3
2023-02-11T14:02:01.739Z,5.3
2023-02-11T14:03:02.748Z,5.3
2023-02-11T14:04:03.656Z,5.3
2023-02-11T14:05:04.640Z,5.2
2023-02-11T14:06:05.733Z,5
2023-02-11T14:07:06.712Z,4.9
2023-02-11T14:08:07.656Z,4.7
2023-02-11T14:09:08.675Z,4.8
2023-02-11T14:10:09.649Z,4.8
2023-02-11T14:11:10.695Z,4.8
2023-02-11T14:12:11.709Z,4.9